Time;durP1;ratioP1;P1;durP2;ratioP2;P2;SDS_P1;SDS_P2;PMS_P1;PMS_P2;Temp;Humidity;BMP_temperature;BMP_pressure;BME280_temperature;BME280_humidity;BME280_pressure;Samples;Min_cycle;Max_cycle;Signal;HPM_P1;HPM_P2
2021/05/31 00:01:30;;;;;;;1.98;1.60;;;;;;;11.97;85.06;100221.47;6347574;28;20413;-57
2021/05/31 00:04:31;;;;;;;1.80;1.50;;;;;;;11.99;85.71;100229.22;6346194;28;20051;-57
2021/05/31 00:07:32;;;;;;;4.18;2.13;;;;;;;11.95;85.68;100223.34;6346191;28;20056;-57
2021/05/31 00:10:33;;;;;;;4.28;1.50;;;;;;;11.99;85.90;100227.44;6347236;28;20063;-57
2021/05/31 00:13:34;;;;;;;2.33;1.38;;;;;;;11.97;85.29;100216.25;6347184;28;20069;-56
2021/05/31 00:16:36;;;;;;;4.18;1.58;;;;;;;11.94;85.67;100220.81;6346870;28;20052;-57
2021/05/31 00:19:37;;;;;;;1.50;1.40;;;;;;;11.88;86.24;100215.06;6347002;28;20043;-56
2021/05/31 00:22:39;;;;;;;1.52;1.15;;;;;;;11.89;86.32;100215.91;6346908;28;20571;-57
2021/05/31 00:25:39;;;;;;;1.75;1.30;;;;;;;11.81;86.24;100212.91;6346029;28;20055;-57
2021/05/31 00:28:40;;;;;;;1.40;1.30;;;;;;;11.83;86.30;100211.88;6346808;28;20404;-57
2021/05/31 00:31:41;;;;;;;1.67;1.48;;;;;;;11.79;86.12;100210.38;6345474;28;20100;-57
2021/05/31 00:34:42;;;;;;;2.40;1.35;;;;;;;11.79;86.81;100214.78;6345552;28;20458;-57
2021/05/31 00:37:43;;;;;;;1.90;1.13;;;;;;;11.79;86.62;100199.91;6346559;28;20097;-57
2021/05/31 00:40:44;;;;;;;1.40;1.30;;;;;;;11.77;87.52;100209.63;6346525;28;20407;-57
2021/05/31 00:43:45;;;;;;;1.50;1.40;;;;;;;11.80;86.88;100201.63;6345300;28;20122;-57
2021/05/31 00:46:47;;;;;;;2.60;1.40;;;;;;;11.76;87.12;100196.69;6346409;28;20066;-57
2021/05/31 00:49:48;;;;;;;1.75;1.55;;;;;;;11.71;87.66;100194.34;6346942;28;20048;-57
2021/05/31 00:52:49;;;;;;;1.80;1.50;;;;;;;11.60;88.25;100195.03;6346426;28;20043;-56
2021/05/31 00:55:50;;;;;;;8.27;1.58;;;;;;;11.58;88.39;100189.06;6346267;28;20070;-57
2021/05/31 00:58:51;;;;;;;5.28;1.48;;;;;;;11.56;88.42;100187.47;6345226;28;20075;-57
2021/05/31 01:01:52;;;;;;;2.20;1.40;;;;;;;11.49;88.63;100184.44;6345243;28;20054;-57
2021/05/31 01:04:52;;;;;;;1.55;1.45;;;;;;;11.47;88.81;100181.06;6328126;28;20078;-57
2021/05/31 01:07:59;;;;;;;1.52;1.42;;;;;;;11.46;89.39;100182.81;6344748;28;20056;-57
2021/05/31 01:11:13;;;;;;;1.77;1.20;;;;;;;11.53;88.70;100185.03;6345965;28;20113;-57
2021/05/31 01:14:38;;;;;;;3.05;1.40;;;;;;;11.53;88.52;100191.13;6345671;28;20413;-56
2021/05/31 01:17:59;;;;;;;2.22;1.40;;;;;;;11.55;88.06;100186.66;6346242;28;20061;-57
2021/05/31 01:21:23;;;;;;;2.47;1.13;;;;;;;11.57;88.08;100183.91;6345955;28;20075;-57
2021/05/31 01:24:51;;;;;;;1.65;1.20;;;;;;;11.56;87.97;100192.72;6344428;28;20051;-57
2021/05/31 01:28:21;;;;;;;1.77;1.25;;;;;;;11.50;87.83;100183.47;6345775;28;20051;-57
2021/05/31 01:31:46;;;;;;;3.17;1.40;;;;;;;11.55;87.70;100186.66;6344610;28;20082;-57
2021/05/31 01:34:49;;;;;;;1.50;1.20;;;;;;;11.53;87.47;100183.28;6344634;28;20044;-57
2021/05/31 01:37:52;;;;;;;1.95;1.27;;;;;;;11.46;87.47;100180.22;6344459;28;20065;-57
2021/05/31 01:40:54;;;;;;;5.25;1.45;;;;;;;11.46;87.96;100188.03;6345771;28;20050;-57
2021/05/31 01:43:55;;;;;;;3.42;1.30;;;;;;;11.47;87.84;100176.69;6327665;28;20040;-57
2021/05/31 01:46:56;;;;;;;1.25;1.13;;;;;;;11.43;88.01;100185.63;6345764;28;20451;-57
2021/05/31 01:49:57;;;;;;;2.25;1.20;;;;;;;11.44;88.14;100179.47;6345647;28;20053;-57
2021/05/31 01:52:59;;;;;;;1.70;1.33;;;;;;;11.48;87.39;100173.09;6345578;28;20044;-56
2021/05/31 01:56:00;;;;;;;2.38;1.30;;;;;;;11.50;87.50;100170.41;6345757;28;20055;-56
2021/05/31 01:59:03;;;;;;;3.80;1.40;;;;;;;11.48;88.45;100174.88;6345399;28;20437;-57
2021/05/31 02:02:05;;;;;;;3.35;1.35;;;;;;;11.49;87.70;100169.56;6344369;28;20093;-57
2021/05/31 02:05:08;;;;;;;1.70;1.30;;;;;;;11.46;88.43;100164.53;6345344;28;20047;-57
2021/05/31 02:08:08;;;;;;;2.47;1.63;;;;;;;11.50;87.85;100162.56;6345361;28;20088;-57
2021/05/31 02:11:27;;;;;;;2.10;1.40;;;;;;;11.49;88.06;100164.34;6344092;28;20044;-57
2021/05/31 02:14:59;;;;;;;2.25;1.20;;;;;;;11.44;88.50;100160.34;6345374;28;20112;-57
2021/05/31 02:18:09;;;;;;;2.20;1.40;;;;;;;11.46;88.24;100171.53;6345286;28;20031;-57
2021/05/31 02:21:14;;;;;;;4.57;1.77;;;;;;;11.50;88.06;100163.41;6345348;28;20123;-57
2021/05/31 02:24:15;;;;;;;3.58;1.50;;;;;;;11.46;88.33;100161.91;6345277;28;20177;-57
2021/05/31 02:27:17;;;;;;;2.60;1.45;;;;;;;11.43;88.50;100162.13;6330125;28;20040;-57
2021/05/31 02:30:20;;;;;;;1.70;1.50;;;;;;;11.48;88.73;100165.28;6349391;28;20047;-56
2021/05/31 02:33:25;;;;;;;2.42;1.75;;;;;;;11.48;89.08;100164.44;6349725;28;20039;-57
2021/05/31 02:36:26;;;;;;;3.03;1.70;;;;;;;11.54;89.47;100164.06;6349533;28;20051;-57
2021/05/31 02:39:26;;;;;;;2.95;1.50;;;;;;;11.55;89.34;100167.50;6348266;28;20044;-56
2021/05/31 02:42:28;;;;;;;2.00;1.52;;;;;;;11.53;89.46;100166.75;6348510;28;20435;-57
2021/05/31 02:45:30;;;;;;;2.38;1.30;;;;;;;11.57;90.17;100165.63;6349574;28;20073;-56
2021/05/31 02:48:31;;;;;;;1.58;1.48;;;;;;;11.54;90.33;100171.06;6349262;28;20050;-57
2021/05/31 02:51:31;;;;;;;4.30;1.70;;;;;;;11.49;89.64;100169.56;6349171;28;20043;-57
2021/05/31 02:54:32;;;;;;;1.60;1.50;;;;;;;11.49;90.25;100168.75;6349162;28;20093;-57
2021/05/31 02:57:33;;;;;;;1.95;1.45;;;;;;;11.50;90.11;100163.41;6347858;28;20043;-57
2021/05/31 03:00:34;;;;;;;1.60;1.50;;;;;;;11.52;90.62;100165.09;6348917;28;20052;-57
2021/05/31 03:03:35;;;;;;;2.15;1.40;;;;;;;11.53;90.62;100162.41;6347698;28;20040;-57
2021/05/31 03:06:35;;;;;;;2.47;1.60;;;;;;;11.47;90.95;100161.00;6348672;28;20555;-57
2021/05/31 03:09:36;;;;;;;2.47;1.80;;;;;;;11.41;93.58;100163.16;6348681;28;20510;-57
2021/05/31 03:12:37;;;;;;;2.13;1.55;;;;;;;11.44;92.67;100158.56;6347366;28;20043;-57
2021/05/31 03:15:38;;;;;;;2.63;1.70;;;;;;;11.45;92.91;100157.63;6348644;28;20039;-57
2021/05/31 03:18:39;;;;;;;5.13;1.90;;;;;;;11.52;92.86;100162.47;6347348;28;20039;-57
2021/05/31 03:21:40;;;;;;;4.60;1.63;;;;;;;11.50;92.86;100162.56;6347171;28;20051;-57
2021/05/31 03:24:41;;;;;;;1.88;1.48;;;;;;;11.50;92.87;100166.00;6347298;28;20539;-57
2021/05/31 03:27:42;;;;;;;3.00;1.90;;;;;;;11.52;92.00;100162.47;6347129;28;20062;-57
2021/05/31 03:30:43;;;;;;;1.88;1.63;;;;;;;11.58;92.38;100165.53;6313119;28;20394;-57
2021/05/31 03:33:44;;;;;;;2.65;1.70;;;;;;;11.56;92.15;100166.56;6348308;28;20040;-57
2021/05/31 03:36:45;;;;;;;2.47;1.83;;;;;;;11.55;91.66;100160.53;6346610;28;20514;-57
2021/05/31 03:39:46;;;;;;;4.63;1.90;;;;;;;11.60;92.00;100153.22;6329869;28;20035;-57
2021/05/31 03:42:51;;;;;;;3.25;1.98;;;;;;;11.62;92.44;100156.56;6347854;28;20044;-57
2021/05/31 03:45:52;;;;;;;1.77;1.67;;;;;;;11.58;92.12;100154.25;6329724;28;20051;-57
2021/05/31 03:48:53;;;;;;;3.90;1.90;;;;;;;11.58;92.11;100160.31;6346440;28;20096;-57
2021/05/31 03:51:53;;;;;;;1.80;1.58;;;;;;;11.61;92.08;100156.66;6346365;28;20044;-57
2021/05/31 03:54:54;;;;;;;2.45;1.70;;;;;;;11.60;92.44;100158.44;6346450;28;20051;-57
2021/05/31 03:57:55;;;;;;;1.90;1.70;;;;;;;11.63;92.33;100163.50;6347624;28;20065;-57
2021/05/31 04:00:57;;;;;;;3.20;1.88;;;;;;;11.72;91.47;100154.22;6347372;28;20418;-57
2021/05/31 04:03:58;;;;;;;1.85;1.75;;;;;;;11.74;92.16;100162.78;6346108;28;20135;-57
2021/05/31 04:13:37;;;;;;;2.97;1.92;;;;;;;11.77;90.40;100154.75;6347159;28;20078;-57
2021/05/31 04:16:40;;;;;;;2.60;2.08;;;;;;;11.75;90.96;100150.56;6345945;28;20489;-57
2021/05/31 04:19:41;;;;;;;2.47;1.77;;;;;;;11.82;91.26;100155.31;6345870;28;20067;-57
2021/05/31 04:22:43;;;;;;;2.30;1.90;;;;;;;11.91;90.51;100147.81;6347001;28;20039;-57
2021/05/31 04:25:44;;;;;;;2.38;1.80;;;;;;;11.91;89.50;100148.66;6347279;28;20051;-57
2021/05/31 04:28:45;;;;;;;2.67;1.85;;;;;;;11.91;89.31;100153.88;6345690;28;20038;-57
2021/05/31 04:31:45;;;;;;;3.08;2.10;;;;;;;11.95;89.61;100152.75;6346589;28;20100;-57
2021/05/31 04:34:46;;;;;;;3.03;2.50;;;;;;;12.03;89.46;100152.25;6362886;27;20510;-57
2021/05/31 04:37:47;;;;;;;2.60;2.10;;;;;;;12.09;89.77;100150.06;6345479;28;20040;-57
2021/05/31 04:40:48;;;;;;;2.63;2.15;;;;;;;12.06;88.61;100152.88;6345456;28;20035;-56
2021/05/31 04:43:49;;;;;;;2.17;1.98;;;;;;;12.15;89.02;100148.84;6345355;28;20062;-57
2021/05/31 04:46:50;;;;;;;3.53;2.15;;;;;;;12.25;88.60;100147.28;6347132;28;20055;-57
2021/05/31 04:49:50;;;;;;;6.00;2.50;;;;;;;12.29;90.21;100150.50;6327654;28;20058;-57
2021/05/31 04:52:51;;;;;;;4.47;2.38;;;;;;;12.26;88.45;100151.56;6328078;28;20047;-57
2021/05/31 04:55:54;;;;;;;2.85;2.35;;;;;;;12.20;89.82;100151.97;6345166;28;20048;-57
2021/05/31 04:58:55;;;;;;;5.15;2.63;;;;;;;12.20;89.96;100151.97;6346247;28;20410;-56
2021/05/31 05:01:56;;;;;;;3.63;2.75;;;;;;;12.21;90.84;100150.19;6345993;28;20481;-57
2021/05/31 05:04:56;;;;;;;5.75;2.80;;;;;;;12.23;90.59;100153.53;6346219;28;20054;-57
2021/05/31 05:07:57;;;;;;;7.70;3.10;;;;;;;12.22;90.44;100157.13;6346014;28;20512;-58
2021/05/31 05:10:58;;;;;;;5.53;2.92;;;;;;;12.16;91.66;100158.34;6361991;27;20047;-57
2021/05/31 05:14:00;;;;;;;6.60;2.65;;;;;;;12.15;90.87;100159.31;6328048;28;20482;-57
2021/05/31 05:17:03;;;;;;;4.40;2.80;;;;;;;12.10;91.64;100154.34;6346097;28;20067;-57
2021/05/31 05:20:05;;;;;;;3.67;3.00;;;;;;;12.03;91.83;100163.56;6344922;28;20059;-58
2021/05/31 05:23:06;;;;;;;3.38;2.88;;;;;;;11.98;92.90;100162.16;6327953;28;20092;-58
2021/05/31 05:26:07;;;;;;;5.30;3.10;;;;;;;11.97;94.14;100168.34;6345895;28;20048;-59
2021/05/31 05:29:08;;;;;;;6.60;4.03;;;;;;;11.85;94.55;100165.53;6327764;28;20040;-58
2021/05/31 05:32:08;;;;;;;6.13;3.75;;;;;;;11.80;95.38;100164.19;6345920;28;20043;-58
2021/05/31 05:35:19;;;;;;;4.82;3.67;;;;;;;11.85;96.26;100170.78;6345894;28;20047;-59
2021/05/31 05:41:35;;;;;;;5.45;4.00;;;;;;;12.00;95.64;100175.97;6345697;28;20055;-58
2021/05/31 05:47:43;;;;;;;6.72;5.28;;;;;;;12.07;96.18;100177.28;6344526;28;20130;-58
2021/05/31 05:50:44;;;;;;;7.85;5.78;;;;;;;12.14;96.08;100175.91;6345610;28;20044;-57
2021/05/31 05:53:46;;;;;;;7.53;5.18;;;;;;;12.08;95.45;100178.94;6344431;28;20393;-58
2021/05/31 05:56:47;;;;;;;4.90;4.03;;;;;;;12.07;95.45;100178.09;6345602;28;20448;-58
2021/05/31 05:59:49;;;;;;;5.45;4.18;;;;;;;12.00;95.92;100179.41;6346279;28;20040;-58
2021/05/31 06:02:50;;;;;;;5.25;3.90;;;;;;;11.99;96.41;100184.78;6350428;28;20096;-60
2021/05/31 06:05:54;;;;;;;5.35;4.50;;;;;;;11.99;95.85;100188.22;6350298;28;20055;-58
2021/05/31 06:08:55;;;;;;;5.30;4.15;;;;;;;12.07;95.90;100182.50;6350101;28;20367;-58
2021/05/31 06:11:56;;;;;;;6.60;4.32;;;;;;;12.14;95.82;100185.56;6348850;28;20078;-58
2021/05/31 06:14:56;;;;;;;5.13;4.30;;;;;;;12.14;95.08;100180.31;6349887;28;20047;-58
2021/05/31 06:17:57;;;;;;;5.07;4.28;;;;;;;12.18;95.68;100187.03;6348664;28;20449;-58
2021/05/31 06:20:58;;;;;;;7.57;4.72;;;;;;;12.15;96.18;100184.59;6347312;28;20086;-58
2021/05/31 06:23:59;;;;;;;9.23;4.82;;;;;;;12.20;96.17;100179.91;6347528;28;20032;-57
2021/05/31 06:27:00;;;;;;;8.65;4.45;;;;;;;12.22;96.33;100178.03;6347737;28;20401;-58
2021/05/31 06:30:02;;;;;;;6.43;4.38;;;;;;;12.25;96.34;100183.06;6348480;28;20052;-58
2021/05/31 06:33:03;;;;;;;7.20;5.30;;;;;;;12.30;97.39;100184.44;6347907;28;20138;-58
2021/05/31 06:36:08;;;;;;;7.68;4.57;;;;;;;12.32;96.40;100178.28;6348393;28;20046;-58
2021/05/31 06:39:10;;;;;;;5.15;4.43;;;;;;;12.41;97.14;100175.88;6349476;28;20039;-57
2021/05/31 06:42:12;;;;;;;5.75;4.35;;;;;;;12.45;97.39;100177.34;6349252;28;20043;-57
2021/05/31 06:45:16;;;;;;;5.32;4.82;;;;;;;12.59;97.39;100165.13;6348447;28;20047;-58
2021/05/31 06:48:17;;;;;;;5.50;4.63;;;;;;;12.64;97.61;100171.72;6349178;28;20052;-58
2021/05/31 06:51:18;;;;;;;6.95;5.13;;;;;;;12.76;96.79;100171.81;6348885;28;20040;-57
2021/05/31 06:54:19;;;;;;;7.95;5.13;;;;;;;12.87;96.94;100164.91;6347992;28;20040;-58
2021/05/31 06:57:20;;;;;;;11.20;5.40;;;;;;;12.98;96.37;100172.03;6339676;28;20044;-60
2021/05/31 07:00:25;;;;;;;6.38;4.88;;;;;;;13.11;94.20;100169.38;6338993;28;20055;-58
2021/05/31 07:03:26;;;;;;;5.55;4.50;;;;;;;13.26;92.81;100172.72;6339250;28;20089;-58
2021/05/31 07:06:28;;;;;;;5.35;4.35;;;;;;;13.29;93.12;100170.75;6322305;28;20052;-58
2021/05/31 07:09:29;;;;;;;6.50;4.78;;;;;;;13.41;93.48;100170.84;6323547;28;20044;-58
2021/05/31 07:12:30;;;;;;;8.38;5.10;;;;;;;13.45;94.19;100172.31;6322703;28;20040;-58
2021/05/31 07:15:33;;;;;;;7.75;4.75;;;;;;;13.49;93.25;100177.22;6322361;28;20056;-58
2021/05/31 07:18:34;;;;;;;7.97;4.47;;;;;;;13.57;92.35;100171.44;6322078;28;20055;-58
2021/05/31 07:21:35;;;;;;;6.50;4.47;;;;;;;13.75;92.35;100166.63;6305865;28;20409;-57
2021/05/31 07:24:36;;;;;;;7.32;5.45;;;;;;;13.88;92.13;100166.59;6322978;28;20036;-58
2021/05/31 07:27:37;;;;;;;7.72;5.63;;;;;;;14.12;90.84;100169.16;6322974;28;20406;-57
2021/05/31 07:30:38;;;;;;;6.57;5.18;;;;;;;14.25;92.29;100172.56;6321594;28;20047;-58
2021/05/31 07:33:39;;;;;;;5.07;4.20;;;;;;;14.25;89.59;100169.13;6321746;28;20055;-57
2021/05/31 07:36:40;;;;;;;9.18;5.30;;;;;;;14.29;90.83;100165.31;6322862;28;20069;-58
2021/05/31 07:39:41;;;;;;;7.15;5.35;;;;;;;14.46;91.24;100172.75;6322865;28;20138;-58
2021/05/31 07:42:42;;;;;;;6.72;3.97;;;;;;;14.50;89.18;100168.09;6322551;28;20052;-58
2021/05/31 07:45:44;;;;;;;5.55;3.63;;;;;;;14.40;88.44;100167.97;6322613;28;20078;-58
2021/05/31 07:48:46;;;;;;;5.82;3.47;;;;;;;14.31;86.17;100174.75;6322491;28;20040;-58
2021/05/31 07:51:47;;;;;;;8.07;4.00;;;;;;;14.38;88.53;100169.88;6304295;28;20044;-58
2021/05/31 07:54:48;;;;;;;6.57;3.90;;;;;;;14.45;85.98;100172.84;6322311;28;20040;-58
2021/05/31 07:57:51;;;;;;;7.30;3.80;;;;;;;14.37;88.43;100177.84;6321338;28;20075;-58
2021/05/31 08:00:52;;;;;;;7.65;4.00;;;;;;;14.38;87.06;100174.28;6321218;28;20060;-57
2021/05/31 08:03:52;;;;;;;5.50;3.60;;;;;;;14.35;89.13;100175.34;6287188;28;20489;-58
2021/05/31 08:06:55;;;;;;;5.72;4.10;;;;;;;14.31;87.23;100172.13;6320821;28;20101;-58
2021/05/31 08:09:56;;;;;;;5.22;3.92;;;;;;;14.25;87.37;100172.56;6321982;28;20466;-58
2021/05/31 08:12:57;;;;;;;5.53;3.30;;;;;;;14.33;84.16;100174.63;6320695;28;20554;-57
2021/05/31 08:15:58;;;;;;;3.88;3.05;;;;;;;14.30;83.37;100165.19;6321739;28;20276;-58
2021/05/31 08:18:59;;;;;;;5.32;3.58;;;;;;;14.27;86.88;100170.69;6321960;28;20040;-57
2021/05/31 08:22:04;;;;;;;5.60;3.75;;;;;;;14.31;88.24;100169.50;6321866;28;20040;-57
2021/05/31 08:25:06;;;;;;;7.43;3.38;;;;;;;14.17;86.36;100168.84;6319498;28;20056;-57
2021/05/31 08:28:07;;;;;;;4.80;3.60;;;;;;;14.07;85.51;100168.69;6320394;28;20082;-58
2021/05/31 08:31:08;;;;;;;6.32;3.40;;;;;;;14.08;85.77;100170.34;6321480;28;20486;-59
2021/05/31 08:34:09;;;;;;;5.53;3.35;;;;;;;14.06;85.74;100167.84;6320294;28;20067;-58
2021/05/31 08:37:10;;;;;;;6.82;3.45;;;;;;;14.08;86.61;100167.72;6320469;28;20048;-58
2021/05/31 08:40:12;;;;;;;3.95;3.00;;;;;;;14.04;85.86;100164.50;6321538;28;20052;-58
2021/05/31 08:43:14;;;;;;;5.32;3.60;;;;;;;13.93;87.93;100163.63;6321236;28;20422;-58
2021/05/31 08:46:15;;;;;;;5.50;3.70;;;;;;;13.82;88.62;100157.38;6321390;28;20044;-58
2021/05/31 08:49:16;;;;;;;7.32;3.72;;;;;;;13.74;90.36;100164.13;6321279;28;20040;-58
2021/05/31 08:52:17;;;;;;;4.90;3.90;;;;;;;13.68;88.77;100160.16;6319804;28;20111;-59
2021/05/31 08:55:20;;;;;;;5.82;4.15;;;;;;;13.64;92.85;100154.28;6320898;28;20146;-59
2021/05/31 08:58:22;;;;;;;14.18;5.32;;;;;;;13.72;90.03;100159.00;6320049;28;20044;-58
2021/05/31 09:01:24;;;;;;;12.60;5.95;;;;;;;13.75;88.77;100165.78;6320975;28;20113;-58
2021/05/31 09:04:25;;;;;;;6.57;4.95;;;;;;;13.69;87.57;100157.44;6320753;28;20048;-58
2021/05/31 09:07:26;;;;;;;8.75;4.57;;;;;;;13.72;88.50;100148.50;6320848;28;20109;-58
2021/05/31 09:10:34;;;;;;;6.05;4.57;;;;;;;13.77;90.78;100159.47;6319635;28;20055;-58
2021/05/31 09:13:39;;;;;;;5.53;4.35;;;;;;;13.85;92.40;100157.13;6319018;28;20470;-58
2021/05/31 09:16:40;;;;;;;8.35;4.63;;;;;;;13.93;90.15;100158.38;6319740;28;20052;-58
2021/05/31 09:19:47;;;;;;;4.20;3.80;;;;;;;13.93;87.94;100153.97;6320934;28;20133;-58
2021/05/31 09:22:51;;;;;;;4.90;4.10;;;;;;;13.84;88.27;100159.88;6320611;28;20048;-58
2021/05/31 09:26:03;;;;;;;5.75;4.47;;;;;;;13.77;89.94;100146.38;6320871;28;20048;-58
2021/05/31 09:29:04;;;;;;;;;;;;;;;13.87;90.09;100142.13;6321108;28;20039;-58
2021/05/31 09:32:07;;;;;;;5.90;3.80;;;;;;;14.04;87.99;100148.78;6320622;28;20011;-58
2021/05/31 09:35:09;;;;;;;13.93;5.15;;;;;;;14.10;88.71;100153.56;6320710;28;20119;-58
2021/05/31 09:38:13;;;;;;;8.88;4.80;;;;;;;14.07;88.33;100150.31;6325730;28;20433;-58
2021/05/31 09:41:32;;;;;;;8.35;4.78;;;;;;;13.83;87.33;100140.66;6325513;28;20055;-58
2021/05/31 09:44:33;;;;;;;6.80;4.40;;;;;;;13.79;90.87;100149.72;6325633;28;20121;-58
2021/05/31 09:47:37;;;;;;;6.10;4.28;;;;;;;13.60;90.42;100138.91;6325495;28;20044;-58
2021/05/31 09:50:38;;;;;;;8.40;5.15;;;;;;;13.44;94.35;100128.66;6325541;28;20048;-58
2021/05/31 09:53:38;;;;;;;7.60;5.25;;;;;;;13.43;94.66;100132.25;6307287;28;20101;-58
2021/05/31 09:56:39;;;;;;;8.43;6.07;;;;;;;13.42;98.01;100133.19;6325219;28;20047;-58
2021/05/31 09:59:43;;;;;;;9.13;5.63;;;;;;;13.43;96.68;100127.00;6325095;28;20494;-58
2021/05/31 10:02:55;;;;;;;11.15;5.03;;;;;;;13.51;93.71;100129.91;6323910;28;20047;-58
2021/05/31 10:08:57;;;;;;;5.80;4.85;;;;;;;13.56;94.99;100134.81;6323742;28;20044;-58
2021/05/31 10:12:00;;;;;;;7.30;4.68;;;;;;;13.63;92.78;100118.53;6323558;28;20048;-58
2021/05/31 10:15:01;;;;;;;11.65;4.80;;;;;;;13.80;93.28;100119.09;6324795;28;20048;-59
2021/05/31 10:18:05;;;;;;;13.90;5.28;;;;;;;13.99;93.83;100119.41;6306845;28;20052;-58
2021/05/31 10:21:06;;;;;;;5.40;4.10;;;;;;;14.26;91.07;100120.91;6324771;28;20048;-58
2021/05/31 10:24:08;;;;;;;4.88;3.75;;;;;;;14.54;91.34;100109.16;6324634;28;20040;-58
2021/05/31 10:27:14;;;;;;;8.43;3.60;;;;;;;14.76;87.21;100110.16;6324607;28;20048;-59
2021/05/31 10:30:17;;;;;;;6.20;4.30;;;;;;;14.98;90.96;100110.16;6324615;28;20040;-59
2021/05/31 10:33:21;;;;;;;5.32;3.40;;;;;;;15.17;84.78;100106.91;6324383;28;20063;-59
2021/05/31 10:36:22;;;;;;;3.65;3.13;;;;;;;15.20;84.54;100104.03;6347748;28;20084;-59
2021/05/31 10:39:25;;;;;;;5.50;3.85;;;;;;;15.21;86.33;100104.88;6348491;28;20474;-60
2021/05/31 10:42:41;;;;;;;3.97;3.55;;;;;;;15.34;85.93;100105.56;6349656;28;20073;-59
2021/05/31 10:45:43;;;;;;;5.55;3.88;;;;;;;15.38;87.30;100104.38;6349283;28;20058;-59
2021/05/31 10:48:49;;;;;;;5.72;3.97;;;;;;;15.54;89.15;100092.59;6348658;28;20059;-58
2021/05/31 10:51:50;;;;;;;3.90;3.50;;;;;;;15.74;82.69;100091.03;6349313;27;20078;-59
2021/05/31 10:54:51;;;;;;;6.93;3.58;;;;;;;15.92;79.25;100089.50;6348185;28;20051;-59
2021/05/31 10:57:56;;;;;;;4.95;3.42;;;;;;;16.06;82.71;100078.66;6347992;28;20039;-58
2021/05/31 11:01:04;;;;;;;3.90;3.15;;;;;;;15.98;76.84;100082.88;6349597;28;20048;-59
2021/05/31 11:04:15;;;;;;;5.50;3.50;;;;;;;15.69;76.51;100079.03;6348951;28;20036;-59
2021/05/31 11:07:26;;;;;;;5.65;3.78;;;;;;;15.61;78.56;100076.22;6348662;28;20418;-59
2021/05/31 11:10:32;;;;;;;7.78;3.47;;;;;;;15.49;80.60;100074.56;6348998;28;20046;-59
2021/05/31 11:13:33;;;;;;;3.45;3.15;;;;;;;15.47;80.58;100065.97;6348627;28;20494;-59
2021/05/31 11:16:35;;;;;;;3.53;3.22;;;;;;;15.60;79.95;100060.53;6347638;28;20035;-59
2021/05/31 11:19:40;;;;;;;4.85;3.28;;;;;;;15.66;79.75;100054.78;6347481;28;20043;-59
2021/05/31 11:23:01;;;;;;;3.35;3.05;;;;;;;15.75;75.85;100055.84;6348739;28;20054;-58
2021/05/31 11:26:02;;;;;;;4.88;2.95;;;;;;;15.70;76.17;100054.41;6348452;28;20474;-58
2021/05/31 11:29:05;;;;;;;2.95;2.50;;;;;;;15.48;74.58;100050.09;6347350;28;20047;-59
2021/05/31 11:32:07;;;;;;;7.53;3.33;;;;;;;15.47;79.74;100060.72;6346971;28;20040;-59
2021/05/31 11:35:11;;;;;;;5.55;3.42;;;;;;;15.46;80.45;100059.91;6348524;28;20044;-58
2021/05/31 11:38:15;;;;;;;5.18;3.55;;;;;;;15.49;80.95;100056.16;6346927;28;20062;-59
2021/05/31 11:41:16;;;;;;;4.88;3.20;;;;;;;15.47;79.81;100058.91;6346767;28;20512;-59
2021/05/31 11:44:20;;;;;;;4.90;3.13;;;;;;;15.38;82.85;100048.31;6346821;28;20035;-59
2021/05/31 11:47:25;;;;;;;5.25;3.50;;;;;;;15.45;81.67;100054.75;6346984;28;20048;-60
2021/05/31 11:50:27;;;;;;;5.55;3.00;;;;;;;15.57;80.61;100055.56;6346775;28;20031;-58
2021/05/31 11:53:28;;;;;;;;;;;;;;;15.70;81.56;100040.41;6348272;28;20035;-59
2021/05/31 11:56:34;;;;;;;8.00;3.75;;;;;;;16.25;83.49;100033.19;6347698;28;20410;-59
2021/05/31 11:59:46;;;;;;;4.22;3.10;;;;;;;16.61;76.34;100017.00;6347741;28;20043;-59
2021/05/31 12:02:46;;;;;;;5.20;3.03;;;;;;;16.88;73.41;100005.84;6346451;28;20056;-60
2021/05/31 12:05:48;;;;;;;4.13;3.53;;;;;;;17.40;71.79;100000.38;6347253;28;20055;-59
2021/05/31 12:08:53;;;;;;;4.80;3.60;;;;;;;17.38;76.50;100007.59;6346442;28;20307;-61
2021/05/31 12:11:55;;;;;;;3.65;3.00;;;;;;;17.11;74.11;100024.91;6347239;28;20121;-58
2021/05/31 12:14:57;;;;;;;4.93;3.00;;;;;;;16.70;75.31;100034.66;6347332;28;20036;-58
2021/05/31 12:18:07;;;;;;;;;;;;;;;16.00;80.91;100052.84;6347735;28;20130;-57
2021/05/31 12:21:08;;;;;;;10.38;3.85;;;;;;;15.17;80.09;100069.28;6347419;28;19930;-58
2021/05/31 12:24:09;;;;;;;12.50;4.05;;;;;;;13.97;79.27;100092.44;6347131;27;20244;-58
2021/05/31 12:27:10;;;;;;;6.53;2.72;;;;;;;13.23;79.89;100079.44;6345762;28;20414;-58
2021/05/31 12:30:14;;;;;;;9.60;2.67;;;;;;;12.52;83.33;100074.84;6347049;28;20046;-58
2021/05/31 12:33:15;;;;;;;13.57;2.80;;;;;;;12.02;89.05;100064.28;6345761;28;20039;-58
2021/05/31 12:36:16;;;;;;;5.80;2.47;;;;;;;11.92;88.00;100056.19;6328637;28;20123;-58
2021/05/31 12:39:17;;;;;;;13.63;3.30;;;;;;;11.91;87.64;100057.16;6345569;28;20042;-58
2021/05/31 12:42:25;;;;;;;7.97;2.10;;;;;;;11.84;87.83;100043.63;6347340;28;20524;-58
2021/05/31 12:45:26;;;;;;;4.82;2.45;;;;;;;11.88;87.51;100052.97;6346667;28;20424;-58
2021/05/31 12:48:28;;;;;;;2.83;2.00;;;;;;;11.86;89.77;100054.81;6345673;28;20183;-57
2021/05/31 12:51:29;;;;;;;2.75;2.08;;;;;;;11.93;89.42;100039.59;6345302;28;20046;-58
2021/05/31 12:54:30;;;;;;;3.45;2.28;;;;;;;11.97;91.60;100048.06;6346565;28;20036;-57
2021/05/31 12:57:44;;;;;;;9.15;2.60;;;;;;;11.99;91.88;100038.34;6328445;28;20042;-57
2021/05/31 13:00:46;;;;;;;3.20;2.50;;;;;;;12.00;91.41;100040.00;6346533;28;20409;-58
2021/05/31 13:03:55;;;;;;;4.13;3.00;;;;;;;12.07;92.97;100039.50;6362333;27;20127;-58
2021/05/31 13:06:56;;;;;;;2.53;2.20;;;;;;;12.06;91.01;100039.59;6346257;28;20066;-58
2021/05/31 13:10:10;;;;;;;3.22;2.45;;;;;;;12.04;91.15;100033.63;6344557;28;20046;-58
2021/05/31 13:13:13;;;;;;;4.55;2.45;;;;;;;12.12;94.59;100030.50;6346281;28;20549;-58
2021/05/31 13:16:14;;;;;;;3.28;2.58;;;;;;;12.06;93.30;100039.59;6346109;28;20093;-57
2021/05/31 13:19:15;;;;;;;5.18;2.67;;;;;;;12.02;95.84;100046.78;6346212;28;20486;-57
2021/05/31 13:22:19;;;;;;;4.70;3.78;;;;;;;11.98;96.80;100047.94;6346148;28;20351;-57
2021/05/31 13:25:19;;;;;;;4.95;3.83;;;;;;;12.00;96.89;100051.28;6346047;28;20035;-57
2021/05/31 13:28:24;;;;;;;11.07;3.88;;;;;;;11.99;97.76;100054.03;6345939;28;20042;-58
2021/05/31 13:31:27;;;;;;;5.70;3.78;;;;;;;12.00;99.99;100053.91;6345919;28;20047;-58
2021/05/31 13:34:35;;;;;;;3.83;3.42;;;;;;;12.09;95.93;100053.31;6344850;28;20542;-58
2021/05/31 13:37:47;;;;;;;5.88;3.75;;;;;;;12.09;97.96;100053.31;6345971;28;20101;-58
2021/05/31 13:40:49;;;;;;;6.90;3.72;;;;;;;12.15;98.30;100057.28;6346199;28;20044;-58
2021/05/31 13:43:52;;;;;;;13.23;3.90;;;;;;;12.16;98.22;100056.34;6327824;28;20055;-59
2021/05/31 13:46:53;;;;;;;8.32;4.00;;;;;;;12.17;98.94;100059.78;6344510;28;20042;-58
2021/05/31 13:49:54;;;;;;;5.13;3.55;;;;;;;12.19;98.48;100055.28;6345721;28;20036;-58
2021/05/31 13:52:56;;;;;;;5.03;3.70;;;;;;;12.21;97.57;100054.25;6345797;28;20031;-59
2021/05/31 13:55:57;;;;;;;8.35;4.13;;;;;;;12.14;97.70;100055.59;6345700;28;20043;-58
2021/05/31 13:58:58;;;;;;;11.23;4.50;;;;;;;12.08;99.58;100056.00;6345790;28;20050;-58
2021/05/31 14:01:59;;;;;;;8.80;4.13;;;;;;;12.20;98.39;100052.56;6327501;28;20040;-61
2021/05/31 14:05:00;;;;;;;10.73;6.10;;;;;;;12.18;99.71;100053.63;6345650;28;20091;-61
2021/05/31 14:08:02;;;;;;;9.45;5.28;;;;;;;12.25;98.55;100047.88;6344267;28;20085;-61
2021/05/31 14:11:03;;;;;;;6.78;4.65;;;;;;;12.24;98.50;100061.06;6327837;28;20135;-61
2021/05/31 14:14:05;;;;;;;8.68;4.15;;;;;;;12.30;96.83;100044.94;6345490;28;20040;-61
2021/05/31 14:17:06;;;;;;;9.10;4.40;;;;;;;12.23;99.04;100041.91;6345756;28;20043;-60
2021/05/31 14:20:08;;;;;;;6.70;4.10;;;;;;;12.22;99.98;100050.69;6345525;28;20081;-58
2021/05/31 14:23:09;;;;;;;7.93;4.70;;;;;;;12.29;99.18;100056.34;6349751;28;20062;-58
2021/05/31 14:26:11;;;;;;;6.57;4.63;;;;;;;12.29;100.00;100059.81;6349971;28;20046;-59